Aerbrava en el facebook Aerbrava en el twitter Aerbrava Google+ Aerbrava instagram Aerbrava en el youtube Aerbrava tumblr Aerbrava flikr Aerbrava pinterest
Aerbrava in English aerbrava en Español
Escola de Pilots
Telèfon 972234126 972 23 41 26
 
Aerbrava in English aerbrava en Español
Aerbrava - meteorologia

Informació meteorològica aeronàutica

 

En aquest apartat apareix la informació meteorològica aeronàutica que és utilitzada a les pràctiques dels alumnes de l’Escola de Pilots del nostre centre durant la seva formació, pel que pot no ser actual i s’hauria d’utilitzar pel seu propi compte i risc. AERBRAVA no es fa responsable del seu ús.

 

TEMPS ACTUAL

Satèl·lit Meteorològic

sat24.com

Servei Meteorològic de Catalunya

 

LEGE 170330Z 00000KT 9999 FEW040 16/14 Q1017
LEGE 170300Z 00000KT 9999 FEW040 16/14 Q1017
LEGE 170200Z 00000KT 9999 FEW040 16/14 Q1017
LEGE 170130Z 00000KT 9999 FEW040 17/14 Q1017
LEGE 170100Z 18001KT 9999 FEW040 17/15 Q1017
LEGE 170030Z VRB02KT CAVOK 17/14 Q1018
LEGE 170000Z 26004KT CAVOK 17/14 Q1018
TAF LEGE 162300Z 1700/1724 VRB03KT 9999 FEW040 TX33/1713Z TN18/1706Z   BECMG 1710/1712 17010KT   BECMG 1718/1720 VRB03KT

Aviation Weather

 
Aerbrava en el facebook Aerbrava en el twitter Aerbrava Google+ Aerbrava instagram Aerbrava en el youtube Aerbrava tumblr Aerbrava flikr Aerbrava pinterest

¡CSS Vàlid!